sensor_id;sensor_type;location;lat;lon;timestamp;pressure;altitude;pressure_sealevel;temperature;humidity
51245;BME280;37840;47.562;18.738;2024-02-14T00:01:06;100207.16;;;5.06;76.43
51245;BME280;37840;47.562;18.738;2024-02-14T00:03:35;100212.91;;;5.16;76.10
51245;BME280;37840;47.562;18.738;2024-02-14T00:06:03;100204.62;;;5.25;75.42
51245;BME280;37840;47.562;18.738;2024-02-14T00:08:30;100206.41;;;5.25;75.28
51245;BME280;37840;47.562;18.738;2024-02-14T00:10:56;100211.94;;;5.19;75.45
51245;BME280;37840;47.562;18.738;2024-02-14T00:13:22;100216.53;;;5.14;76.07
51245;BME280;37840;47.562;18.738;2024-02-14T00:15:48;100214.59;;;5.19;76.08
51245;BME280;37840;47.562;18.738;2024-02-14T00:18:14;100220.66;;;5.21;75.96
51245;BME280;37840;47.562;18.738;2024-02-14T00:20:41;100220.47;;;5.25;75.95
51245;BME280;37840;47.562;18.738;2024-02-14T00:23:07;100228.47;;;5.22;76.04
51245;BME280;37840;47.562;18.738;2024-02-14T00:25:32;100225.12;;;5.19;76.33
51245;BME280;37840;47.562;18.738;2024-02-14T00:27:58;100227.63;;;5.22;76.16
51245;BME280;37840;47.562;18.738;2024-02-14T00:30:26;100223.19;;;5.22;75.89
51245;BME280;37840;47.562;18.738;2024-02-14T00:32:52;100226.72;;;5.23;75.48
51245;BME280;37840;47.562;18.738;2024-02-14T00:35:18;100231.13;;;5.22;75.05
51245;BME280;37840;47.562;18.738;2024-02-14T00:37:44;100237.44;;;5.18;75.27
51245;BME280;37840;47.562;18.738;2024-02-14T00:40:10;100238.81;;;5.06;75.63
51245;BME280;37840;47.562;18.738;2024-02-14T00:42:37;100246.72;;;5.06;75.71
51245;BME280;37840;47.562;18.738;2024-02-14T00:45:03;100254.63;;;5.06;76.04
51245;BME280;37840;47.562;18.738;2024-02-14T00:47:29;100253.03;;;5.02;75.90
51245;BME280;37840;47.562;18.738;2024-02-14T00:49:55;100250.44;;;5.01;76.46
51245;BME280;37840;47.562;18.738;2024-02-14T00:52:21;100251.19;;;5.04;76.47
51245;BME280;37840;47.562;18.738;2024-02-14T00:54:47;100244.94;;;5.07;76.31
51245;BME280;37840;47.562;18.738;2024-02-14T00:57:13;100249.34;;;5.06;75.90
51245;BME280;37840;47.562;18.738;2024-02-14T00:59:39;100248.56;;;5.04;75.16
51245;BME280;37840;47.562;18.738;2024-02-14T01:02:04;100253.94;;;5.01;75.01
51245;BME280;37840;47.562;18.738;2024-02-14T01:04:30;100247.34;;;4.91;75.08
51245;BME280;37840;47.562;18.738;2024-02-14T01:06:56;100245.56;;;4.92;74.91
51245;BME280;37840;47.562;18.738;2024-02-14T01:09:22;100252.84;;;4.85;74.89
51245;BME280;37840;47.562;18.738;2024-02-14T01:11:48;100246.22;;;4.75;75.42
51245;BME280;37840;47.562;18.738;2024-02-14T01:14:14;100249.03;;;4.70;75.81
51245;BME280;37840;47.562;18.738;2024-02-14T01:16:46;100250.87;;;4.68;76.06
51245;BME280;37840;47.562;18.738;2024-02-14T01:19:13;100240.50;;;4.63;76.19
51245;BME280;37840;47.562;18.738;2024-02-14T01:21:39;100247.47;;;4.64;76.39
51245;BME280;37840;47.562;18.738;2024-02-14T01:24:05;100238.59;;;4.67;76.61
51245;BME280;37840;47.562;18.738;2024-02-14T01:26:31;100236.72;;;4.70;76.10
51245;BME280;37840;47.562;18.738;2024-02-14T01:29:00;100243.75;;;4.70;75.49
51245;BME280;37840;47.562;18.738;2024-02-14T01:31:27;100241.47;;;4.61;74.94
51245;BME280;37840;47.562;18.738;2024-02-14T01:33:53;100240.75;;;4.57;75.54
51245;BME280;37840;47.562;18.738;2024-02-14T01:36:19;100241.69;;;4.55;76.00
51245;BME280;37840;47.562;18.738;2024-02-14T01:38:45;100246.91;;;4.56;76.55
51245;BME280;37840;47.562;18.738;2024-02-14T01:41:11;100243.44;;;4.56;76.68
51245;BME280;37840;47.562;18.738;2024-02-14T01:43:36;100245.13;;;4.57;76.22
51245;BME280;37840;47.562;18.738;2024-02-14T01:46:05;100249.44;;;4.59;76.19
51245;BME280;37840;47.562;18.738;2024-02-14T01:48:31;100247.53;;;4.63;76.16
51245;BME280;37840;47.562;18.738;2024-02-14T01:51:00;100245.78;;;4.63;76.11
51245;BME280;37840;47.562;18.738;2024-02-14T01:53:27;100253.69;;;4.63;75.78
51245;BME280;37840;47.562;18.738;2024-02-14T01:55:56;100249.22;;;4.65;75.55
51245;BME280;37840;47.562;18.738;2024-02-14T01:58:23;100247.59;;;4.61;75.73
51245;BME280;37840;47.562;18.738;2024-02-14T02:00:49;100250.41;;;4.57;74.94
51245;BME280;37840;47.562;18.738;2024-02-14T02:03:15;100242.75;;;4.51;74.81
51245;BME280;37840;47.562;18.738;2024-02-14T02:05:41;100248.97;;;4.48;74.81
51245;BME280;37840;47.562;18.738;2024-02-14T02:08:08;100253.56;;;4.43;75.00
51245;BME280;37840;47.562;18.738;2024-02-14T02:10:35;100253.53;;;4.44;74.75
51245;BME280;37840;47.562;18.738;2024-02-14T02:13:01;100252.81;;;4.39;74.71
51245;BME280;37840;47.562;18.738;2024-02-14T02:15:27;100253.00;;;4.35;74.84
51245;BME280;37840;47.562;18.738;2024-02-14T02:17:54;100256.59;;;4.32;75.35
51245;BME280;37840;47.562;18.738;2024-02-14T02:20:20;100260.09;;;4.33;74.85
51245;BME280;37840;47.562;18.738;2024-02-14T02:22:47;100253.25;;;4.27;75.50
51245;BME280;37840;47.562;18.738;2024-02-14T02:25:16;100252.38;;;4.28;76.02
51245;BME280;37840;47.562;18.738;2024-02-14T02:27:41;100254.00;;;4.31;76.54
51245;BME280;37840;47.562;18.738;2024-02-14T02:30:08;100263.47;;;4.36;76.27
51245;BME280;37840;47.562;18.738;2024-02-14T02:32:36;100253.97;;;4.32;75.15
51245;BME280;37840;47.562;18.738;2024-02-14T02:35:02;100258.44;;;4.30;74.41
51245;BME280;37840;47.562;18.738;2024-02-14T02:37:28;100261.34;;;4.22;74.64
51245;BME280;37840;47.562;18.738;2024-02-14T02:39:58;100259.91;;;4.14;74.74
51245;BME280;37840;47.562;18.738;2024-02-14T02:42:24;100261.94;;;4.05;75.48
51245;BME280;37840;47.562;18.738;2024-02-14T02:44:53;100260.47;;;3.98;75.92
51245;BME280;37840;47.562;18.738;2024-02-14T02:47:18;100270.97;;;3.98;75.47
51245;BME280;37840;47.562;18.738;2024-02-14T02:49:44;100261.59;;;3.91;75.44
51245;BME280;37840;47.562;18.738;2024-02-14T02:52:11;100266.88;;;3.91;75.67
51245;BME280;37840;47.562;18.738;2024-02-14T02:54:38;100261.72;;;3.86;76.26
51245;BME280;37840;47.562;18.738;2024-02-14T02:57:12;100263.56;;;3.84;75.72
51245;BME280;37840;47.562;18.738;2024-02-14T02:59:38;100270.66;;;3.82;76.60
51245;BME280;37840;47.562;18.738;2024-02-14T03:02:08;100269.16;;;3.75;75.97
51245;BME280;37840;47.562;18.738;2024-02-14T03:04:35;100278.69;;;3.78;76.53
51245;BME280;37840;47.562;18.738;2024-02-14T03:07:01;100281.41;;;3.76;77.24
51245;BME280;37840;47.562;18.738;2024-02-14T03:09:33;100276.94;;;3.78;77.47
51245;BME280;37840;47.562;18.738;2024-02-14T03:11:59;100283.09;;;3.77;76.67
51245;BME280;37840;47.562;18.738;2024-02-14T03:14:31;100288.25;;;3.80;76.77
51245;BME280;37840;47.562;18.738;2024-02-14T03:17:03;100282.13;;;3.80;76.18
51245;BME280;37840;47.562;18.738;2024-02-14T03:19:29;100290.34;;;3.71;76.25
51245;BME280;37840;47.562;18.738;2024-02-14T03:21:56;100296.47;;;3.71;76.32
51245;BME280;37840;47.562;18.738;2024-02-14T03:24:23;100290.34;;;3.71;77.09
51245;BME280;37840;47.562;18.738;2024-02-14T03:26:51;100287.72;;;3.71;77.46
51245;BME280;37840;47.562;18.738;2024-02-14T03:29:20;100306.13;;;3.71;76.67
51245;BME280;37840;47.562;18.738;2024-02-14T03:31:47;100301.94;;;3.65;76.64
51245;BME280;37840;47.562;18.738;2024-02-14T03:34:13;100305.41;;;3.65;76.65
51245;BME280;37840;47.562;18.738;2024-02-14T03:36:39;100299.38;;;3.63;76.60
51245;BME280;37840;47.562;18.738;2024-02-14T03:39:05;100303.88;;;3.60;76.76
51245;BME280;37840;47.562;18.738;2024-02-14T03:41:32;100301.19;;;3.61;76.79
51245;BME280;37840;47.562;18.738;2024-02-14T03:43:58;100302.00;;;3.63;77.69
51245;BME280;37840;47.562;18.738;2024-02-14T03:46:27;100300.28;;;3.62;77.71
51245;BME280;37840;47.562;18.738;2024-02-14T03:48:56;100306.38;;;3.63;78.00
51245;BME280;37840;47.562;18.738;2024-02-14T03:51:24;100307.28;;;3.63;77.97
51245;BME280;37840;47.562;18.738;2024-02-14T03:53:51;100310.12;;;3.56;78.11
51245;BME280;37840;47.562;18.738;2024-02-14T03:56:16;100315.41;;;3.56;77.47
51245;BME280;37840;47.562;18.738;2024-02-14T03:58:42;100310.22;;;3.53;76.80
51245;BME280;37840;47.562;18.738;2024-02-14T04:01:09;100316.56;;;3.47;76.81
51245;BME280;37840;47.562;18.738;2024-02-14T04:03:35;100322.88;;;3.41;76.92
51245;BME280;37840;47.562;18.738;2024-02-14T04:06:01;100324.06;;;3.31;76.20
51245;BME280;37840;47.562;18.738;2024-02-14T04:08:27;100330.25;;;3.30;77.09
51245;BME280;37840;47.562;18.738;2024-02-14T04:10:53;100328.31;;;3.35;78.50
51245;BME280;37840;47.562;18.738;2024-02-14T04:13:22;100343.19;;;3.36;78.27
51245;BME280;37840;47.562;18.738;2024-02-14T04:15:48;100344.94;;;3.36;78.42
51245;BME280;37840;47.562;18.738;2024-02-14T04:18:14;100354.72;;;3.32;78.21
51245;BME280;37840;47.562;18.738;2024-02-14T04:20:44;100360.06;;;3.29;78.30
51245;BME280;37840;47.562;18.738;2024-02-14T04:23:11;100359.31;;;3.25;79.05
51245;BME280;37840;47.562;18.738;2024-02-14T04:25:37;100364.47;;;3.29;79.93
51245;BME280;37840;47.562;18.738;2024-02-14T04:28:03;100365.25;;;3.32;79.82
51245;BME280;37840;47.562;18.738;2024-02-14T04:30:29;100368.87;;;3.28;79.82
51245;BME280;37840;47.562;18.738;2024-02-14T04:32:55;100367.25;;;3.24;80.25
51245;BME280;37840;47.562;18.738;2024-02-14T04:35:22;100368.91;;;3.26;79.67
51245;BME280;37840;47.562;18.738;2024-02-14T04:37:48;100369.81;;;3.25;80.19
51245;BME280;37840;47.562;18.738;2024-02-14T04:40:15;100373.53;;;3.18;79.63
51245;BME280;37840;47.562;18.738;2024-02-14T04:42:41;100376.34;;;3.12;80.03
51245;BME280;37840;47.562;18.738;2024-02-14T04:45:07;100372.91;;;3.10;79.77
51245;BME280;37840;47.562;18.738;2024-02-14T04:47:34;100381.66;;;3.11;79.25
51245;BME280;37840;47.562;18.738;2024-02-14T04:50:00;100375.59;;;3.09;79.28
51245;BME280;37840;47.562;18.738;2024-02-14T04:52:27;100375.75;;;3.04;79.32
51245;BME280;37840;47.562;18.738;2024-02-14T04:54:52;100378.47;;;2.99;79.19
51245;BME280;37840;47.562;18.738;2024-02-14T04:57:18;100383.47;;;3.09;79.55
51245;BME280;37840;47.562;18.738;2024-02-14T04:59:45;100388.31;;;2.93;76.97
51245;BME280;37840;47.562;18.738;2024-02-14T05:02:11;100398.75;;;2.64;78.05
51245;BME280;37840;47.562;18.738;2024-02-14T05:04:37;100402.34;;;2.62;78.11
51245;BME280;37840;47.562;18.738;2024-02-14T05:07:06;100391.97;;;2.57;79.66
51245;BME280;37840;47.562;18.738;2024-02-14T05:09:33;100400.56;;;2.62;79.88
51245;BME280;37840;47.562;18.738;2024-02-14T05:11:59;100396.13;;;2.64;79.60
51245;BME280;37840;47.562;18.738;2024-02-14T05:14:25;100400.38;;;2.69;79.45
51245;BME280;37840;47.562;18.738;2024-02-14T05:16:51;100398.47;;;2.74;79.50
51245;BME280;37840;47.562;18.738;2024-02-14T05:19:17;100400.88;;;2.83;79.29
51245;BME280;37840;47.562;18.738;2024-02-14T05:21:43;100403.34;;;2.88;77.97
51245;BME280;37840;47.562;18.738;2024-02-14T05:24:09;100403.44;;;2.84;77.04
51245;BME280;37840;47.562;18.738;2024-02-14T05:26:35;100408.78;;;2.81;78.01
51245;BME280;37840;47.562;18.738;2024-02-14T05:29:01;100412.44;;;2.76;78.02
51245;BME280;37840;47.562;18.738;2024-02-14T05:31:43;100416.94;;;2.72;77.89
51245;BME280;37840;47.562;18.738;2024-02-14T05:34:09;100409.25;;;2.64;77.47
51245;BME280;37840;47.562;18.738;2024-02-14T05:36:36;100407.72;;;2.57;77.81
51245;BME280;37840;47.562;18.738;2024-02-14T05:39:03;100410.25;;;2.60;78.59
51245;BME280;37840;47.562;18.738;2024-02-14T05:41:28;100414.66;;;2.58;78.20
51245;BME280;37840;47.562;18.738;2024-02-14T05:43:56;100409.63;;;2.51;78.06
51245;BME280;37840;47.562;18.738;2024-02-14T05:46:22;100411.34;;;2.52;78.83
51245;BME280;37840;47.562;18.738;2024-02-14T05:48:47;100419.13;;;2.55;78.83
51245;BME280;37840;47.562;18.738;2024-02-14T05:51:14;100419.53;;;2.41;75.21
51245;BME280;37840;47.562;18.738;2024-02-14T05:53:40;100423.41;;;2.26;75.76
51245;BME280;37840;47.562;18.738;2024-02-14T05:56:06;100429.66;;;2.20;77.72
51245;BME280;37840;47.562;18.738;2024-02-14T05:58:32;100428.72;;;2.23;80.14
51245;BME280;37840;47.562;18.738;2024-02-14T06:00:57;100436.56;;;2.24;79.45
51245;BME280;37840;47.562;18.738;2024-02-14T06:03:23;100431.25;;;2.28;79.17
51245;BME280;37840;47.562;18.738;2024-02-14T06:05:50;100422.31;;;2.35;80.10
51245;BME280;37840;47.562;18.738;2024-02-14T06:08:16;100429.59;;;2.56;80.98
51245;BME280;37840;47.562;18.738;2024-02-14T06:10:42;100430.50;;;2.86;78.30
51245;BME280;37840;47.562;18.738;2024-02-14T06:13:08;100434.03;;;3.17;77.51
51245;BME280;37840;47.562;18.738;2024-02-14T06:15:35;100431.81;;;3.61;77.10
51245;BME280;37840;47.562;18.738;2024-02-14T06:18:01;100436.56;;;4.04;75.96
51245;BME280;37840;47.562;18.738;2024-02-14T06:20:27;100434.09;;;4.52;73.90
51245;BME280;37840;47.562;18.738;2024-02-14T06:22:53;100433.34;;;4.97;71.28
51245;BME280;37840;47.562;18.738;2024-02-14T06:25:20;100446.69;;;4.92;68.14
51245;BME280;37840;47.562;18.738;2024-02-14T06:27:46;100455.91;;;4.55;65.40
51245;BME280;37840;47.562;18.738;2024-02-14T06:30:12;100462.94;;;4.29;66.24
51245;BME280;37840;47.562;18.738;2024-02-14T06:32:38;100460.22;;;4.31;67.19
51245;BME280;37840;47.562;18.738;2024-02-14T06:35:04;100460.72;;;4.93;65.81
51245;BME280;37840;47.562;18.738;2024-02-14T06:37:30;100455.72;;;5.34;64.32
51245;BME280;37840;47.562;18.738;2024-02-14T06:39:56;100465.31;;;5.35;64.26
51245;BME280;37840;47.562;18.738;2024-02-14T06:42:22;100470.91;;;5.72;63.56
51245;BME280;37840;47.562;18.738;2024-02-14T06:44:48;100466.97;;;5.83;62.77
51245;BME280;37840;47.562;18.738;2024-02-14T06:47:15;100469.97;;;5.97;62.87
51245;BME280;37840;47.562;18.738;2024-02-14T06:49:41;100482.50;;;6.35;62.96
51245;BME280;37840;47.562;18.738;2024-02-14T06:52:07;100484.78;;;6.85;61.65
51245;BME280;37840;47.562;18.738;2024-02-14T06:54:33;100478.56;;;7.25;60.08
51245;BME280;37840;47.562;18.738;2024-02-14T06:56:59;100485.84;;;7.77;59.30
51245;BME280;37840;47.562;18.738;2024-02-14T06:59:25;100481.37;;;7.96;58.19
51245;BME280;37840;47.562;18.738;2024-02-14T07:01:51;100484.69;;;8.02;57.63
51245;BME280;37840;47.562;18.738;2024-02-14T07:04:21;100490.47;;;8.64;56.33
51245;BME280;37840;47.562;18.738;2024-02-14T07:06:54;100493.75;;;8.86;55.58
51245;BME280;37840;47.562;18.738;2024-02-14T07:09:20;100494.31;;;9.09;54.59
51245;BME280;37840;47.562;18.738;2024-02-14T07:11:46;100498.34;;;9.49;54.12
51245;BME280;37840;47.562;18.738;2024-02-14T07:14:12;100492.75;;;10.17;52.44
51245;BME280;37840;47.562;18.738;2024-02-14T07:16:37;100489.66;;;10.71;50.79
51245;BME280;37840;47.562;18.738;2024-02-14T07:19:03;100484.84;;;11.07;49.92
51245;BME280;37840;47.562;18.738;2024-02-14T07:21:29;100481.91;;;11.54;49.08
51245;BME280;37840;47.562;18.738;2024-02-14T07:23:55;100490.19;;;12.06;47.32
51245;BME280;37840;47.562;18.738;2024-02-14T07:26:21;100492.09;;;12.31;46.68
51245;BME280;37840;47.562;18.738;2024-02-14T07:28:47;100493.72;;;12.86;45.93
51245;BME280;37840;47.562;18.738;2024-02-14T07:31:13;100494.75;;;12.83;46.04
51245;BME280;37840;47.562;18.738;2024-02-14T07:33:39;100495.84;;;12.94;46.44
51245;BME280;37840;47.562;18.738;2024-02-14T07:36:05;100491.81;;;13.14;44.68
51245;BME280;37840;47.562;18.738;2024-02-14T07:38:31;100494.06;;;13.33;44.27
51245;BME280;37840;47.562;18.738;2024-02-14T07:40:57;100492.03;;;13.86;43.76
51245;BME280;37840;47.562;18.738;2024-02-14T07:43:23;100484.47;;;14.04;42.28
51245;BME280;37840;47.562;18.738;2024-02-14T07:45:49;100488.63;;;14.08;42.72
51245;BME280;37840;47.562;18.738;2024-02-14T07:48:16;100492.44;;;14.41;42.40
51245;BME280;37840;47.562;18.738;2024-02-14T07:50:42;100491.53;;;14.29;42.18
51245;BME280;37840;47.562;18.738;2024-02-14T07:53:08;100492.88;;;14.11;42.91
51245;BME280;37840;47.562;18.738;2024-02-14T07:55:33;100506.44;;;13.96;43.41
51245;BME280;37840;47.562;18.738;2024-02-14T07:57:59;100507.97;;;13.75;43.67
51245;BME280;37840;47.562;18.738;2024-02-14T08:00:26;100511.44;;;13.00;45.10
51245;BME280;37840;47.562;18.738;2024-02-14T08:02:52;100514.06;;;12.74;46.09
51245;BME280;37840;47.562;18.738;2024-02-14T08:05:18;100512.84;;;11.98;48.88
51245;BME280;37840;47.562;18.738;2024-02-14T08:07:45;100515.84;;;11.51;49.40
51245;BME280;37840;47.562;18.738;2024-02-14T08:10:12;100508.34;;;11.14;51.52
51245;BME280;37840;47.562;18.738;2024-02-14T08:12:38;100510.09;;;10.25;53.42
51245;BME280;37840;47.562;18.738;2024-02-14T08:15:04;100516.94;;;9.81;55.11
51245;BME280;37840;47.562;18.738;2024-02-14T08:17:32;100529.28;;;9.50;55.99
51245;BME280;37840;47.562;18.738;2024-02-14T08:20:01;100520.44;;;9.16;57.87
51245;BME280;37840;47.562;18.738;2024-02-14T08:22:29;100529.63;;;8.59;59.67
51245;BME280;37840;47.562;18.738;2024-02-14T08:24:55;100528.25;;;8.50;60.97
51245;BME280;37840;47.562;18.738;2024-02-14T08:27:21;100533.50;;;8.32;61.49
51245;BME280;37840;47.562;18.738;2024-02-14T08:29:47;100534.81;;;8.24;62.25
51245;BME280;37840;47.562;18.738;2024-02-14T08:32:13;100538.03;;;8.30;63.81
51245;BME280;37840;47.562;18.738;2024-02-14T08:34:39;100535.31;;;8.32;62.91
51245;BME280;37840;47.562;18.738;2024-02-14T08:37:05;100535.94;;;8.37;63.64
51245;BME280;37840;47.562;18.738;2024-02-14T08:39:32;100534.22;;;8.55;64.04
51245;BME280;37840;47.562;18.738;2024-02-14T08:41:58;100535.47;;;8.65;63.38
51245;BME280;37840;47.562;18.738;2024-02-14T08:44:27;100532.78;;;8.48;63.20
51245;BME280;37840;47.562;18.738;2024-02-14T08:46:53;100540.53;;;8.70;63.96
51245;BME280;37840;47.562;18.738;2024-02-14T08:49:19;100531.06;;;8.47;65.29
51245;BME280;37840;47.562;18.738;2024-02-14T08:51:45;100525.19;;;8.40;64.03
51245;BME280;37840;47.562;18.738;2024-02-14T08:54:13;100532.94;;;8.45;63.38
51245;BME280;37840;47.562;18.738;2024-02-14T08:56:41;100526.22;;;8.37;65.39
51245;BME280;37840;47.562;18.738;2024-02-14T08:59:07;100520.31;;;8.50;64.52
51245;BME280;37840;47.562;18.738;2024-02-14T09:01:33;100533.72;;;8.47;66.13
51245;BME280;37840;47.562;18.738;2024-02-14T09:04:00;100529.72;;;8.38;66.02
51245;BME280;37840;47.562;18.738;2024-02-14T09:06:26;100527.97;;;8.37;65.38
51245;BME280;37840;47.562;18.738;2024-02-14T09:08:52;100525.06;;;8.43;64.80
51245;BME280;37840;47.562;18.738;2024-02-14T09:11:19;100521.41;;;8.46;63.25
51245;BME280;37840;47.562;18.738;2024-02-14T09:13:45;100528.37;;;8.48;61.68
51245;BME280;37840;47.562;18.738;2024-02-14T09:16:13;100523.84;;;8.50;62.72
51245;BME280;37840;47.562;18.738;2024-02-14T09:18:41;100523.06;;;8.48;61.67
51245;BME280;37840;47.562;18.738;2024-02-14T09:21:07;100520.88;;;8.56;62.54
51245;BME280;37840;47.562;18.738;2024-02-14T09:23:33;100515.47;;;8.75;61.01
51245;BME280;37840;47.562;18.738;2024-02-14T09:25:59;100514.00;;;8.87;60.47
51245;BME280;37840;47.562;18.738;2024-02-14T09:28:25;100511.50;;;9.02;61.21
51245;BME280;37840;47.562;18.738;2024-02-14T09:30:51;100518.25;;;9.07;59.80
51245;BME280;37840;47.562;18.738;2024-02-14T09:33:17;100519.94;;;8.75;62.30
51245;BME280;37840;47.562;18.738;2024-02-14T09:35:43;100518.69;;;8.82;62.20
51245;BME280;37840;47.562;18.738;2024-02-14T09:38:13;100521.97;;;8.87;62.58
51245;BME280;37840;47.562;18.738;2024-02-14T09:40:42;100518.37;;;8.71;62.36
51245;BME280;37840;47.562;18.738;2024-02-14T09:43:37;100523.06;;;8.83;62.26
51245;BME280;37840;47.562;18.738;2024-02-14T09:46:04;100522.66;;;8.91;61.97
51245;BME280;37840;47.562;18.738;2024-02-14T09:48:30;100519.47;;;9.02;60.91
51245;BME280;37840;47.562;18.738;2024-02-14T09:50:56;100518.03;;;9.12;63.12
51245;BME280;37840;47.562;18.738;2024-02-14T09:53:23;100527.12;;;9.24;61.35
51245;BME280;37840;47.562;18.738;2024-02-14T09:55:50;100526.41;;;9.04;63.09
51245;BME280;37840;47.562;18.738;2024-02-14T09:58:17;100515.06;;;9.01;62.87
51245;BME280;37840;47.562;18.738;2024-02-14T10:00:43;100516.81;;;9.02;62.02
51245;BME280;37840;47.562;18.738;2024-02-14T10:03:09;100522.56;;;9.10;62.60
51245;BME280;37840;47.562;18.738;2024-02-14T10:05:35;100509.84;;;9.16;62.09
51245;BME280;37840;47.562;18.738;2024-02-14T10:08:01;100508.22;;;9.30;63.32
51245;BME280;37840;47.562;18.738;2024-02-14T10:10:27;100506.34;;;9.32;62.06
51245;BME280;37840;47.562;18.738;2024-02-14T10:12:56;100510.22;;;9.42;61.40
51245;BME280;37840;47.562;18.738;2024-02-14T10:15:22;100499.19;;;9.50;62.42
51245;BME280;37840;47.562;18.738;2024-02-14T10:17:48;100494.69;;;9.68;62.41
51245;BME280;37840;47.562;18.738;2024-02-14T10:20:17;100494.16;;;9.77;61.65
51245;BME280;37840;47.562;18.738;2024-02-14T10:22:43;100489.28;;;9.85;63.50
51245;BME280;37840;47.562;18.738;2024-02-14T10:25:10;100481.53;;;9.96;56.78
51245;BME280;37840;47.562;18.738;2024-02-14T10:27:37;100475.72;;;10.06;56.24
51245;BME280;37840;47.562;18.738;2024-02-14T10:30:08;100481.84;;;10.22;56.14
51245;BME280;37840;47.562;18.738;2024-02-14T10:32:37;100487.63;;;10.30;56.13
51245;BME280;37840;47.562;18.738;2024-02-14T10:35:04;100481.59;;;10.43;55.08
51245;BME280;37840;47.562;18.738;2024-02-14T10:37:35;100483.97;;;10.47;56.04
51245;BME280;37840;47.562;18.738;2024-02-14T10:40:02;100483.81;;;10.50;57.09
51245;BME280;37840;47.562;18.738;2024-02-14T10:42:32;100474.03;;;10.51;55.60
51245;BME280;37840;47.562;18.738;2024-02-14T10:44:59;100468.44;;;10.55;55.04
51245;BME280;37840;47.562;18.738;2024-02-14T10:47:34;100469.47;;;10.53;56.34
51245;BME280;37840;47.562;18.738;2024-02-14T10:50:06;100475.62;;;10.53;54.55
51245;BME280;37840;47.562;18.738;2024-02-14T10:52:36;100464.63;;;10.59;54.61
51245;BME280;37840;47.562;18.738;2024-02-14T10:55:07;100464.28;;;10.66;52.58
51245;BME280;37840;47.562;18.738;2024-02-14T10:57:33;100452.12;;;10.76;54.13
51245;BME280;37840;47.562;18.738;2024-02-14T11:00:02;100455.38;;;10.81;54.11
51245;BME280;37840;47.562;18.738;2024-02-14T11:02:28;100457.53;;;10.74;55.45
51245;BME280;37840;47.562;18.738;2024-02-14T11:04:56;100463.53;;;10.78;52.22
51245;BME280;37840;47.562;18.738;2024-02-14T11:07:23;100452.62;;;10.82;51.69
51245;BME280;37840;47.562;18.738;2024-02-14T11:10:06;100439.41;;;10.81;52.32
51245;BME280;37840;47.562;18.738;2024-02-14T11:12:34;100441.31;;;10.79;51.12
51245;BME280;37840;47.562;18.738;2024-02-14T11:15:24;100438.84;;;10.76;52.14
51245;BME280;37840;47.562;18.738;2024-02-14T11:18:04;100441.41;;;10.77;51.43
51245;BME280;37840;47.562;18.738;2024-02-14T11:20:32;100440.09;;;10.85;51.13
51245;BME280;37840;47.562;18.738;2024-02-14T11:23:03;100432.66;;;10.90;49.53
51245;BME280;37840;47.562;18.738;2024-02-14T11:25:31;100430.28;;;10.85;49.49
51245;BME280;37840;47.562;18.738;2024-02-14T11:28:15;100426.00;;;10.82;51.13
51245;BME280;37840;47.562;18.738;2024-02-14T11:30:42;100423.72;;;10.76;50.87
51245;BME280;37840;47.562;18.738;2024-02-14T11:33:22;100418.00;;;10.68;51.55
51245;BME280;37840;47.562;18.738;2024-02-14T11:35:50;100419.91;;;10.66;49.87
51245;BME280;37840;47.562;18.738;2024-02-14T11:38:19;100418.31;;;10.78;51.67
51245;BME280;37840;47.562;18.738;2024-02-14T11:40:45;100418.97;;;10.81;50.06
51245;BME280;37840;47.562;18.738;2024-02-14T11:43:19;100423.63;;;10.78;49.03
51245;BME280;37840;47.562;18.738;2024-02-14T11:45:49;100414.06;;;10.75;51.15
51245;BME280;37840;47.562;18.738;2024-02-14T11:48:19;100411.38;;;10.75;49.81
51245;BME280;37840;47.562;18.738;2024-02-14T11:50:51;100421.91;;;10.77;49.37
51245;BME280;37840;47.562;18.738;2024-02-14T11:53:18;100417.94;;;10.70;49.27
51245;BME280;37840;47.562;18.738;2024-02-14T11:55:45;100415.06;;;10.73;50.01
51245;BME280;37840;47.562;18.738;2024-02-14T11:58:15;100412.41;;;10.73;50.11
51245;BME280;37840;47.562;18.738;2024-02-14T12:00:44;100417.72;;;10.73;50.59
51245;BME280;37840;47.562;18.738;2024-02-14T12:03:34;100413.09;;;10.76;50.29
51245;BME280;37840;47.562;18.738;2024-02-14T12:05:58;100417.06;;;10.84;50.12
51245;BME280;37840;47.562;18.738;2024-02-14T12:08:24;100404.34;;;10.89;50.37
51245;BME280;37840;47.562;18.738;2024-02-14T12:10:50;100402.09;;;10.97;51.72
51245;BME280;37840;47.562;18.738;2024-02-14T12:13:20;100408.44;;;11.09;51.58
51245;BME280;37840;47.562;18.738;2024-02-14T12:15:50;100410.31;;;11.07;50.30
51245;BME280;37840;47.562;18.738;2024-02-14T12:18:18;100406.16;;;11.02;50.34
51245;BME280;37840;47.562;18.738;2024-02-14T12:20:45;100406.63;;;10.95;50.53
51245;BME280;37840;47.562;18.738;2024-02-14T12:23:18;100407.19;;;11.00;49.48
51245;BME280;37840;47.562;18.738;2024-02-14T12:25:45;100407.56;;;10.94;49.89
51245;BME280;37840;47.562;18.738;2024-02-14T12:28:16;100401.03;;;10.85;49.56
51245;BME280;37840;47.562;18.738;2024-02-14T12:30:46;100408.84;;;10.88;50.53
51245;BME280;37840;47.562;18.738;2024-02-14T12:33:15;100403.97;;;10.95;51.45
51245;BME280;37840;47.562;18.738;2024-02-14T12:35:46;100400.06;;;11.00;51.03
51245;BME280;37840;47.562;18.738;2024-02-14T12:38:14;100397.06;;;10.92;49.88
51245;BME280;37840;47.562;18.738;2024-02-14T12:40:41;100403.00;;;10.96;50.25
51245;BME280;37840;47.562;18.738;2024-02-14T12:43:08;100404.28;;;10.90;50.42
51245;BME280;37840;47.562;18.738;2024-02-14T12:45:34;100398.56;;;10.82;50.41
51245;BME280;37840;47.562;18.738;2024-02-14T12:48:01;100392.56;;;10.78;50.39